sensor_id;sensor_type;location;lat;lon;timestamp;P1;durP1;ratioP1;P2;durP2;ratioP2
74679;SDS011;63211;48.548;2.704;2024-02-16T00:00:58;1.50;;;0.60;;
74679;SDS011;63211;48.548;2.704;2024-02-16T00:03:25;1.08;;;0.47;;
74679;SDS011;63211;48.548;2.704;2024-02-16T00:05:52;0.90;;;0.47;;
74679;SDS011;63211;48.548;2.704;2024-02-16T00:08:19;1.88;;;0.50;;
74679;SDS011;63211;48.548;2.704;2024-02-16T00:10:47;1.27;;;0.40;;
74679;SDS011;63211;48.548;2.704;2024-02-16T00:13:14;1.45;;;0.38;;
74679;SDS011;63211;48.548;2.704;2024-02-16T00:15:41;1.25;;;0.70;;
74679;SDS011;63211;48.548;2.704;2024-02-16T00:18:07;0.60;;;0.40;;
74679;SDS011;63211;48.548;2.704;2024-02-16T00:20:34;1.25;;;0.50;;
74679;SDS011;63211;48.548;2.704;2024-02-16T00:23:01;1.33;;;0.32;;
74679;SDS011;63211;48.548;2.704;2024-02-16T00:25:27;1.15;;;0.60;;
74679;SDS011;63211;48.548;2.704;2024-02-16T00:27:55;0.75;;;0.40;;
74679;SDS011;63211;48.548;2.704;2024-02-16T00:30:22;0.60;;;0.30;;
74679;SDS011;63211;48.548;2.704;2024-02-16T00:32:48;1.23;;;0.38;;
74679;SDS011;63211;48.548;2.704;2024-02-16T00:35:15;1.08;;;0.47;;
74679;SDS011;63211;48.548;2.704;2024-02-16T00:37:42;0.52;;;0.30;;
74679;SDS011;63211;48.548;2.704;2024-02-16T00:40:11;0.82;;;0.30;;
74679;SDS011;63211;48.548;2.704;2024-02-16T00:42:38;0.82;;;0.38;;
74679;SDS011;63211;48.548;2.704;2024-02-16T00:45:07;1.63;;;0.38;;
74679;SDS011;63211;48.548;2.704;2024-02-16T00:47:34;1.10;;;0.40;;
74679;SDS011;63211;48.548;2.704;2024-02-16T00:50:01;1.85;;;0.50;;
74679;SDS011;63211;48.548;2.704;2024-02-16T00:52:30;0.82;;;0.38;;
74679;SDS011;63211;48.548;2.704;2024-02-16T00:54:57;1.13;;;0.50;;
74679;SDS011;63211;48.548;2.704;2024-02-16T00:57:23;1.00;;;0.50;;
74679;SDS011;63211;48.548;2.704;2024-02-16T00:59:50;0.52;;;0.30;;
74679;SDS011;63211;48.548;2.704;2024-02-16T01:02:18;0.95;;;0.50;;
74679;SDS011;63211;48.548;2.704;2024-02-16T01:04:44;0.68;;;0.40;;
74679;SDS011;63211;48.548;2.704;2024-02-16T01:07:12;0.63;;;0.30;;
74679;SDS011;63211;48.548;2.704;2024-02-16T01:09:38;0.60;;;0.40;;
74679;SDS011;63211;48.548;2.704;2024-02-16T01:12:05;0.70;;;0.30;;
74679;SDS011;63211;48.548;2.704;2024-02-16T01:14:32;1.38;;;0.40;;
74679;SDS011;63211;48.548;2.704;2024-02-16T01:16:58;1.58;;;0.43;;
74679;SDS011;63211;48.548;2.704;2024-02-16T01:19:26;1.45;;;0.40;;
74679;SDS011;63211;48.548;2.704;2024-02-16T01:21:53;2.42;;;0.30;;
74679;SDS011;63211;48.548;2.704;2024-02-16T01:24:22;0.90;;;0.60;;
74679;SDS011;63211;48.548;2.704;2024-02-16T01:26:49;0.43;;;0.28;;
74679;SDS011;63211;48.548;2.704;2024-02-16T01:29:15;0.20;;;0.20;;
74679;SDS011;63211;48.548;2.704;2024-02-16T01:31:42;0.52;;;0.30;;
74679;SDS011;63211;48.548;2.704;2024-02-16T01:34:09;3.58;;;0.30;;
74679;SDS011;63211;48.548;2.704;2024-02-16T01:36:37;0.70;;;0.35;;
74679;SDS011;63211;48.548;2.704;2024-02-16T01:39:03;0.73;;;0.20;;
74679;SDS011;63211;48.548;2.704;2024-02-16T01:41:31;1.05;;;0.30;;
74679;SDS011;63211;48.548;2.704;2024-02-16T01:43:58;0.77;;;0.32;;
74679;SDS011;63211;48.548;2.704;2024-02-16T01:46:25;1.40;;;0.20;;
74679;SDS011;63211;48.548;2.704;2024-02-16T01:48:52;0.55;;;0.20;;
74679;SDS011;63211;48.548;2.704;2024-02-16T01:51:19;1.52;;;0.40;;
74679;SDS011;63211;48.548;2.704;2024-02-16T01:53:50;1.08;;;0.30;;
74679;SDS011;63211;48.548;2.704;2024-02-16T01:56:17;0.73;;;0.30;;
74679;SDS011;63211;48.548;2.704;2024-02-16T01:58:45;0.35;;;0.22;;
74679;SDS011;63211;48.548;2.704;2024-02-16T02:01:14;2.45;;;0.30;;
74679;SDS011;63211;48.548;2.704;2024-02-16T02:03:40;0.98;;;0.43;;
74679;SDS011;63211;48.548;2.704;2024-02-16T02:06:07;0.73;;;0.30;;
74679;SDS011;63211;48.548;2.704;2024-02-16T02:08:34;0.70;;;0.30;;
74679;SDS011;63211;48.548;2.704;2024-02-16T02:11:02;1.13;;;0.40;;
74679;SDS011;63211;48.548;2.704;2024-02-16T02:13:28;0.90;;;0.38;;
74679;SDS011;63211;48.548;2.704;2024-02-16T02:15:55;1.13;;;0.30;;
74679;SDS011;63211;48.548;2.704;2024-02-16T02:18:23;0.90;;;0.35;;
74679;SDS011;63211;48.548;2.704;2024-02-16T02:20:51;0.30;;;0.20;;
74679;SDS011;63211;48.548;2.704;2024-02-16T02:23:20;0.70;;;0.30;;
74679;SDS011;63211;48.548;2.704;2024-02-16T02:25:46;0.95;;;0.40;;
74679;SDS011;63211;48.548;2.704;2024-02-16T02:28:14;0.52;;;0.30;;
74679;SDS011;63211;48.548;2.704;2024-02-16T02:30:40;0.73;;;0.20;;
74679;SDS011;63211;48.548;2.704;2024-02-16T02:33:07;0.73;;;0.30;;
74679;SDS011;63211;48.548;2.704;2024-02-16T02:35:34;0.82;;;0.40;;
74679;SDS011;63211;48.548;2.704;2024-02-16T02:38:00;0.50;;;0.20;;
74679;SDS011;63211;48.548;2.704;2024-02-16T02:40:29;1.17;;;0.30;;
74679;SDS011;63211;48.548;2.704;2024-02-16T02:42:55;0.70;;;0.30;;
74679;SDS011;63211;48.548;2.704;2024-02-16T02:45:22;0.80;;;0.10;;
74679;SDS011;63211;48.548;2.704;2024-02-16T02:47:48;0.75;;;0.30;;
74679;SDS011;63211;48.548;2.704;2024-02-16T02:50:15;0.40;;;0.28;;
74679;SDS011;63211;48.548;2.704;2024-02-16T02:52:43;0.45;;;0.22;;
74679;SDS011;63211;48.548;2.704;2024-02-16T02:55:10;0.52;;;0.30;;
74679;SDS011;63211;48.548;2.704;2024-02-16T02:57:39;0.30;;;0.20;;
74679;SDS011;63211;48.548;2.704;2024-02-16T03:00:06;0.52;;;0.30;;
74679;SDS011;63211;48.548;2.704;2024-02-16T03:02:35;0.82;;;0.40;;
74679;SDS011;63211;48.548;2.704;2024-02-16T03:05:03;1.80;;;0.25;;
74679;SDS011;63211;48.548;2.704;2024-02-16T03:07:29;0.57;;;0.25;;
74679;SDS011;63211;48.548;2.704;2024-02-16T03:09:56;0.80;;;0.30;;
74679;SDS011;63211;48.548;2.704;2024-02-16T03:12:23;0.57;;;0.25;;
74679;SDS011;63211;48.548;2.704;2024-02-16T03:14:51;0.98;;;0.30;;
74679;SDS011;63211;48.548;2.704;2024-02-16T03:17:17;0.30;;;0.10;;
74679;SDS011;63211;48.548;2.704;2024-02-16T03:19:44;0.90;;;0.20;;
74679;SDS011;63211;48.548;2.704;2024-02-16T03:22:10;0.77;;;0.30;;
74679;SDS011;63211;48.548;2.704;2024-02-16T03:24:37;0.85;;;0.30;;
74679;SDS011;63211;48.548;2.704;2024-02-16T03:27:04;1.13;;;0.20;;
74679;SDS011;63211;48.548;2.704;2024-02-16T03:29:31;1.00;;;0.40;;
74679;SDS011;63211;48.548;2.704;2024-02-16T03:31:59;0.47;;;0.17;;
74679;SDS011;63211;48.548;2.704;2024-02-16T03:34:26;0.85;;;0.20;;
74679;SDS011;63211;48.548;2.704;2024-02-16T03:36:52;0.40;;;0.22;;
74679;SDS011;63211;48.548;2.704;2024-02-16T03:39:19;0.52;;;0.25;;
74679;SDS011;63211;48.548;2.704;2024-02-16T03:41:45;0.55;;;0.20;;
74679;SDS011;63211;48.548;2.704;2024-02-16T03:44:13;1.45;;;0.50;;
74679;SDS011;63211;48.548;2.704;2024-02-16T03:46:40;0.45;;;0.20;;
74679;SDS011;63211;48.548;2.704;2024-02-16T03:49:08;0.75;;;0.40;;
74679;SDS011;63211;48.548;2.704;2024-02-16T03:51:35;0.70;;;0.40;;
74679;SDS011;63211;48.548;2.704;2024-02-16T03:54:02;0.55;;;0.30;;
74679;SDS011;63211;48.548;2.704;2024-02-16T03:56:29;0.40;;;0.30;;
74679;SDS011;63211;48.548;2.704;2024-02-16T03:58:56;0.65;;;0.30;;
74679;SDS011;63211;48.548;2.704;2024-02-16T04:01:22;0.90;;;0.30;;
74679;SDS011;63211;48.548;2.704;2024-02-16T04:03:49;0.73;;;0.38;;
74679;SDS011;63211;48.548;2.704;2024-02-16T04:06:18;1.23;;;0.30;;
74679;SDS011;63211;48.548;2.704;2024-02-16T04:08:45;0.35;;;0.28;;
74679;SDS011;63211;48.548;2.704;2024-02-16T04:11:11;0.63;;;0.20;;
74679;SDS011;63211;48.548;2.704;2024-02-16T04:13:40;0.90;;;0.20;;
74679;SDS011;63211;48.548;2.704;2024-02-16T04:16:06;0.47;;;0.13;;
74679;SDS011;63211;48.548;2.704;2024-02-16T04:18:33;0.85;;;0.22;;
74679;SDS011;63211;48.548;2.704;2024-02-16T04:20:59;0.30;;;0.20;;
74679;SDS011;63211;48.548;2.704;2024-02-16T04:23:27;0.95;;;0.35;;
74679;SDS011;63211;48.548;2.704;2024-02-16T04:25:54;1.58;;;0.20;;
74679;SDS011;63211;48.548;2.704;2024-02-16T04:28:21;0.50;;;0.22;;
74679;SDS011;63211;48.548;2.704;2024-02-16T04:30:49;1.40;;;0.30;;
74679;SDS011;63211;48.548;2.704;2024-02-16T04:33:15;1.15;;;0.30;;
74679;SDS011;63211;48.548;2.704;2024-02-16T04:35:42;0.52;;;0.20;;
74679;SDS011;63211;48.548;2.704;2024-02-16T04:38:11;0.50;;;0.22;;
74679;SDS011;63211;48.548;2.704;2024-02-16T04:40:39;1.75;;;0.30;;
74679;SDS011;63211;48.548;2.704;2024-02-16T04:43:06;2.67;;;0.70;;
74679;SDS011;63211;48.548;2.704;2024-02-16T04:45:32;0.40;;;0.10;;
74679;SDS011;63211;48.548;2.704;2024-02-16T04:48:02;0.55;;;0.30;;
74679;SDS011;63211;48.548;2.704;2024-02-16T04:50:30;1.20;;;0.30;;
74679;SDS011;63211;48.548;2.704;2024-02-16T04:52:56;0.68;;;0.22;;
74679;SDS011;63211;48.548;2.704;2024-02-16T04:55:23;2.78;;;0.50;;
74679;SDS011;63211;48.548;2.704;2024-02-16T04:57:51;0.47;;;0.20;;
74679;SDS011;63211;48.548;2.704;2024-02-16T05:00:17;1.15;;;0.45;;
74679;SDS011;63211;48.548;2.704;2024-02-16T05:02:45;2.75;;;0.20;;
74679;SDS011;63211;48.548;2.704;2024-02-16T05:05:12;0.93;;;0.20;;
74679;SDS011;63211;48.548;2.704;2024-02-16T05:07:40;0.65;;;0.30;;
74679;SDS011;63211;48.548;2.704;2024-02-16T05:10:08;0.60;;;0.30;;
74679;SDS011;63211;48.548;2.704;2024-02-16T05:12:35;1.63;;;0.40;;
74679;SDS011;63211;48.548;2.704;2024-02-16T05:15:04;0.75;;;0.20;;
74679;SDS011;63211;48.548;2.704;2024-02-16T05:17:32;0.90;;;0.40;;
74679;SDS011;63211;48.548;2.704;2024-02-16T05:19:58;0.75;;;0.20;;
74679;SDS011;63211;48.548;2.704;2024-02-16T05:22:25;0.43;;;0.20;;
74679;SDS011;63211;48.548;2.704;2024-02-16T05:24:51;0.60;;;0.20;;
74679;SDS011;63211;48.548;2.704;2024-02-16T05:27:18;0.38;;;0.20;;
74679;SDS011;63211;48.548;2.704;2024-02-16T05:29:44;0.55;;;0.22;;
74679;SDS011;63211;48.548;2.704;2024-02-16T05:32:12;0.40;;;0.17;;
74679;SDS011;63211;48.548;2.704;2024-02-16T05:34:39;0.93;;;0.20;;
74679;SDS011;63211;48.548;2.704;2024-02-16T05:37:07;0.55;;;0.20;;
74679;SDS011;63211;48.548;2.704;2024-02-16T05:39:35;0.50;;;0.30;;
74679;SDS011;63211;48.548;2.704;2024-02-16T05:42:18;0.50;;;0.17;;
74679;SDS011;63211;48.548;2.704;2024-02-16T05:44:46;0.32;;;0.20;;
74679;SDS011;63211;48.548;2.704;2024-02-16T05:47:14;0.30;;;0.10;;
74679;SDS011;63211;48.548;2.704;2024-02-16T05:49:41;0.38;;;0.20;;
74679;SDS011;63211;48.548;2.704;2024-02-16T05:52:07;0.35;;;0.20;;
74679;SDS011;63211;48.548;2.704;2024-02-16T05:54:46;0.68;;;0.38;;
74679;SDS011;63211;48.548;2.704;2024-02-16T05:57:14;1.17;;;0.22;;
74679;SDS011;63211;48.548;2.704;2024-02-16T05:59:43;1.17;;;0.50;;
74679;SDS011;63211;48.548;2.704;2024-02-16T06:02:10;0.70;;;0.20;;
74679;SDS011;63211;48.548;2.704;2024-02-16T06:04:38;0.40;;;0.10;;
74679;SDS011;63211;48.548;2.704;2024-02-16T06:07:05;0.52;;;0.15;;
74679;SDS011;63211;48.548;2.704;2024-02-16T06:09:32;1.00;;;0.20;;
74679;SDS011;63211;48.548;2.704;2024-02-16T06:12:00;0.63;;;0.20;;
74679;SDS011;63211;48.548;2.704;2024-02-16T06:14:29;0.93;;;0.22;;
74679;SDS011;63211;48.548;2.704;2024-02-16T06:16:56;0.13;;;0.10;;
74679;SDS011;63211;48.548;2.704;2024-02-16T06:19:23;0.70;;;0.28;;
74679;SDS011;63211;48.548;2.704;2024-02-16T06:21:50;1.00;;;0.22;;
74679;SDS011;63211;48.548;2.704;2024-02-16T06:24:17;5.38;;;0.20;;
74679;SDS011;63211;48.548;2.704;2024-02-16T06:26:44;0.35;;;0.20;;
74679;SDS011;63211;48.548;2.704;2024-02-16T06:29:11;0.43;;;0.17;;
74679;SDS011;63211;48.548;2.704;2024-02-16T06:31:39;1.10;;;0.35;;
74679;SDS011;63211;48.548;2.704;2024-02-16T06:34:05;1.10;;;0.15;;
74679;SDS011;63211;48.548;2.704;2024-02-16T06:36:33;0.82;;;0.20;;
74679;SDS011;63211;48.548;2.704;2024-02-16T06:39:01;0.77;;;0.30;;
74679;SDS011;63211;48.548;2.704;2024-02-16T06:41:29;0.80;;;0.20;;
74679;SDS011;63211;48.548;2.704;2024-02-16T06:43:55;1.00;;;0.28;;
74679;SDS011;63211;48.548;2.704;2024-02-16T06:46:22;0.85;;;0.38;;
74679;SDS011;63211;48.548;2.704;2024-02-16T06:48:49;0.52;;;0.22;;
74679;SDS011;63211;48.548;2.704;2024-02-16T06:51:17;1.95;;;0.22;;
74679;SDS011;63211;48.548;2.704;2024-02-16T06:53:43;0.30;;;0.13;;
74679;SDS011;63211;48.548;2.704;2024-02-16T06:56:12;0.30;;;0.20;;
74679;SDS011;63211;48.548;2.704;2024-02-16T06:58:38;0.50;;;0.20;;
74679;SDS011;63211;48.548;2.704;2024-02-16T07:01:05;0.28;;;0.20;;
74679;SDS011;63211;48.548;2.704;2024-02-16T07:03:32;1.15;;;0.22;;
74679;SDS011;63211;48.548;2.704;2024-02-16T07:06:01;1.10;;;0.20;;
74679;SDS011;63211;48.548;2.704;2024-02-16T07:08:28;0.32;;;0.10;;
74679;SDS011;63211;48.548;2.704;2024-02-16T07:10:55;0.57;;;0.17;;
74679;SDS011;63211;48.548;2.704;2024-02-16T07:13:23;1.85;;;0.35;;
74679;SDS011;63211;48.548;2.704;2024-02-16T07:15:49;0.90;;;0.63;;
74679;SDS011;63211;48.548;2.704;2024-02-16T07:18:16;1.65;;;0.10;;
74679;SDS011;63211;48.548;2.704;2024-02-16T07:20:43;1.17;;;0.20;;
74679;SDS011;63211;48.548;2.704;2024-02-16T07:23:09;5.90;;;1.23;;
74679;SDS011;63211;48.548;2.704;2024-02-16T07:25:37;4.38;;;0.90;;
74679;SDS011;63211;48.548;2.704;2024-02-16T07:28:03;3.75;;;0.80;;
74679;SDS011;63211;48.548;2.704;2024-02-16T07:30:32;2.72;;;0.43;;
74679;SDS011;63211;48.548;2.704;2024-02-16T07:32:59;3.95;;;0.70;;
74679;SDS011;63211;48.548;2.704;2024-02-16T07:35:25;3.50;;;0.55;;
74679;SDS011;63211;48.548;2.704;2024-02-16T07:37:52;2.42;;;0.52;;
74679;SDS011;63211;48.548;2.704;2024-02-16T07:40:19;0.75;;;0.40;;
74679;SDS011;63211;48.548;2.704;2024-02-16T07:42:46;1.27;;;0.38;;
74679;SDS011;63211;48.548;2.704;2024-02-16T07:45:12;0.68;;;0.22;;
74679;SDS011;63211;48.548;2.704;2024-02-16T07:47:41;3.47;;;0.32;;
74679;SDS011;63211;48.548;2.704;2024-02-16T07:50:08;5.00;;;0.75;;
74679;SDS011;63211;48.548;2.704;2024-02-16T07:52:35;1.83;;;0.30;;
74679;SDS011;63211;48.548;2.704;2024-02-16T07:55:03;1.58;;;0.25;;
74679;SDS011;63211;48.548;2.704;2024-02-16T07:57:30;2.15;;;0.32;;
74679;SDS011;63211;48.548;2.704;2024-02-16T07:59:56;3.90;;;0.50;;
74679;SDS011;63211;48.548;2.704;2024-02-16T08:02:23;0.93;;;0.30;;
74679;SDS011;63211;48.548;2.704;2024-02-16T08:04:51;2.08;;;0.25;;
74679;SDS011;63211;48.548;2.704;2024-02-16T08:07:18;5.90;;;0.65;;
74679;SDS011;63211;48.548;2.704;2024-02-16T08:09:44;2.55;;;0.20;;
74679;SDS011;63211;48.548;2.704;2024-02-16T08:12:11;1.13;;;0.38;;
74679;SDS011;63211;48.548;2.704;2024-02-16T08:14:38;1.05;;;0.30;;
74679;SDS011;63211;48.548;2.704;2024-02-16T08:17:05;3.35;;;0.50;;
74679;SDS011;63211;48.548;2.704;2024-02-16T08:19:32;1.40;;;0.43;;
74679;SDS011;63211;48.548;2.704;2024-02-16T08:22:00;0.95;;;0.30;;
74679;SDS011;63211;48.548;2.704;2024-02-16T08:24:28;1.17;;;0.30;;
74679;SDS011;63211;48.548;2.704;2024-02-16T08:26:54;1.45;;;0.40;;
74679;SDS011;63211;48.548;2.704;2024-02-16T08:29:21;0.93;;;0.10;;
74679;SDS011;63211;48.548;2.704;2024-02-16T08:31:48;0.38;;;0.20;;
74679;SDS011;63211;48.548;2.704;2024-02-16T08:34:16;1.65;;;0.10;;
74679;SDS011;63211;48.548;2.704;2024-02-16T08:36:43;0.80;;;0.22;;
74679;SDS011;63211;48.548;2.704;2024-02-16T08:39:11;0.95;;;0.20;;
74679;SDS011;63211;48.548;2.704;2024-02-16T08:41:38;1.05;;;0.20;;
74679;SDS011;63211;48.548;2.704;2024-02-16T08:44:06;0.82;;;0.10;;
74679;SDS011;63211;48.548;2.704;2024-02-16T08:46:34;2.08;;;0.30;;
74679;SDS011;63211;48.548;2.704;2024-02-16T08:49:01;1.08;;;0.20;;
74679;SDS011;63211;48.548;2.704;2024-02-16T08:51:27;1.20;;;0.28;;
74679;SDS011;63211;48.548;2.704;2024-02-16T08:53:54;0.70;;;0.20;;
74679;SDS011;63211;48.548;2.704;2024-02-16T08:56:22;2.90;;;0.10;;
74679;SDS011;63211;48.548;2.704;2024-02-16T08:58:49;0.30;;;0.10;;
74679;SDS011;63211;48.548;2.704;2024-02-16T09:01:16;0.40;;;0.10;;
74679;SDS011;63211;48.548;2.704;2024-02-16T09:03:42;1.05;;;0.52;;
74679;SDS011;63211;48.548;2.704;2024-02-16T09:06:09;2.38;;;0.20;;
74679;SDS011;63211;48.548;2.704;2024-02-16T09:08:35;0.85;;;0.20;;
74679;SDS011;63211;48.548;2.704;2024-02-16T09:11:02;0.93;;;0.40;;
74679;SDS011;63211;48.548;2.704;2024-02-16T09:13:31;0.55;;;0.20;;
74679;SDS011;63211;48.548;2.704;2024-02-16T09:15:58;0.73;;;0.20;;
74679;SDS011;63211;48.548;2.704;2024-02-16T09:18:25;1.48;;;0.30;;
74679;SDS011;63211;48.548;2.704;2024-02-16T09:20:52;1.75;;;0.30;;
74679;SDS011;63211;48.548;2.704;2024-02-16T09:23:19;0.47;;;0.10;;
74679;SDS011;63211;48.548;2.704;2024-02-16T09:25:45;1.85;;;0.20;;
74679;SDS011;63211;48.548;2.704;2024-02-16T09:28:12;0.17;;;0.10;;
74679;SDS011;63211;48.548;2.704;2024-02-16T09:30:40;0.47;;;0.10;;
74679;SDS011;63211;48.548;2.704;2024-02-16T09:33:06;0.70;;;0.10;;
74679;SDS011;63211;48.548;2.704;2024-02-16T09:35:33;0.17;;;0.00;;
74679;SDS011;63211;48.548;2.704;2024-02-16T09:38:00;0.70;;;0.15;;
74679;SDS011;63211;48.548;2.704;2024-02-16T09:40:26;0.22;;;0.10;;
74679;SDS011;63211;48.548;2.704;2024-02-16T09:42:53;0.57;;;0.20;;
74679;SDS011;63211;48.548;2.704;2024-02-16T09:45:19;2.17;;;0.13;;
74679;SDS011;63211;48.548;2.704;2024-02-16T09:47:48;0.43;;;0.00;;
74679;SDS011;63211;48.548;2.704;2024-02-16T09:50:17;0.50;;;0.35;;
74679;SDS011;63211;48.548;2.704;2024-02-16T09:52:46;0.60;;;0.10;;
74679;SDS011;63211;48.548;2.704;2024-02-16T09:55:14;1.58;;;0.20;;
74679;SDS011;63211;48.548;2.704;2024-02-16T09:57:42;0.45;;;0.10;;
74679;SDS011;63211;48.548;2.704;2024-02-16T10:00:09;0.35;;;0.10;;
74679;SDS011;63211;48.548;2.704;2024-02-16T10:02:40;0.68;;;0.10;;
74679;SDS011;63211;48.548;2.704;2024-02-16T10:05:14;0.98;;;0.13;;
74679;SDS011;63211;48.548;2.704;2024-02-16T10:07:42;0.17;;;0.10;;
74679;SDS011;63211;48.548;2.704;2024-02-16T10:10:19;0.20;;;0.10;;
74679;SDS011;63211;48.548;2.704;2024-02-16T10:12:46;0.60;;;0.00;;
74679;SDS011;63211;48.548;2.704;2024-02-16T10:15:18;0.77;;;0.10;;
74679;SDS011;63211;48.548;2.704;2024-02-16T10:17:56;0.10;;;0.00;;
74679;SDS011;63211;48.548;2.704;2024-02-16T10:20:24;0.10;;;0.10;;
74679;SDS011;63211;48.548;2.704;2024-02-16T10:23:01;0.25;;;0.10;;
74679;SDS011;63211;48.548;2.704;2024-02-16T10:25:29;0.10;;;0.00;;
74679;SDS011;63211;48.548;2.704;2024-02-16T10:27:55;1.17;;;0.10;;
74679;SDS011;63211;48.548;2.704;2024-02-16T10:30:23;0.85;;;0.20;;
74679;SDS011;63211;48.548;2.704;2024-02-16T10:32:55;2.20;;;0.82;;
74679;SDS011;63211;48.548;2.704;2024-02-16T10:35:21;0.40;;;0.10;;
74679;SDS011;63211;48.548;2.704;2024-02-16T10:37:52;1.17;;;0.10;;
74679;SDS011;63211;48.548;2.704;2024-02-16T10:40:21;0.47;;;0.13;;
74679;SDS011;63211;48.548;2.704;2024-02-16T10:42:49;0.52;;;0.08;;
74679;SDS011;63211;48.548;2.704;2024-02-16T10:45:16;0.73;;;0.20;;
74679;SDS011;63211;48.548;2.704;2024-02-16T10:47:43;0.47;;;0.20;;
74679;SDS011;63211;48.548;2.704;2024-02-16T10:50:10;0.38;;;0.10;;
74679;SDS011;63211;48.548;2.704;2024-02-16T10:52:37;0.38;;;0.08;;
74679;SDS011;63211;48.548;2.704;2024-02-16T10:55:08;0.20;;;0.10;;
74679;SDS011;63211;48.548;2.704;2024-02-16T10:57:36;0.22;;;0.13;;
74679;SDS011;63211;48.548;2.704;2024-02-16T11:00:07;0.47;;;0.20;;
74679;SDS011;63211;48.548;2.704;2024-02-16T11:02:50;0.40;;;0.10;;
74679;SDS011;63211;48.548;2.704;2024-02-16T11:05:17;1.08;;;0.20;;
74679;SDS011;63211;48.548;2.704;2024-02-16T11:07:44;1.05;;;0.08;;
74679;SDS011;63211;48.548;2.704;2024-02-16T11:10:13;0.68;;;0.10;;
74679;SDS011;63211;48.548;2.704;2024-02-16T11:12:42;2.75;;;0.20;;
74679;SDS011;63211;48.548;2.704;2024-02-16T11:15:11;0.40;;;0.20;;
74679;SDS011;63211;48.548;2.704;2024-02-16T11:17:39;1.10;;;0.35;;
74679;SDS011;63211;48.548;2.704;2024-02-16T11:20:06;0.50;;;0.40;;
74679;SDS011;63211;48.548;2.704;2024-02-16T11:22:36;1.27;;;0.20;;
74679;SDS011;63211;48.548;2.704;2024-02-16T11:25:04;0.70;;;0.20;;
74679;SDS011;63211;48.548;2.704;2024-02-16T11:27:34;1.75;;;0.20;;
74679;SDS011;63211;48.548;2.704;2024-02-16T11:30:01;1.15;;;0.30;;
74679;SDS011;63211;48.548;2.704;2024-02-16T11:32:31;1.80;;;0.20;;
74679;SDS011;63211;48.548;2.704;2024-02-16T11:35:04;0.57;;;0.10;;
74679;SDS011;63211;48.548;2.704;2024-02-16T11:37:31;0.60;;;0.20;;
74679;SDS011;63211;48.548;2.704;2024-02-16T11:39:58;0.85;;;0.13;;
74679;SDS011;63211;48.548;2.704;2024-02-16T11:42:24;0.43;;;0.15;;
74679;SDS011;63211;48.548;2.704;2024-02-16T11:44:53;0.52;;;0.10;;
74679;SDS011;63211;48.548;2.704;2024-02-16T11:47:20;0.22;;;0.10;;
74679;SDS011;63211;48.548;2.704;2024-02-16T11:49:59;2.47;;;0.40;;
74679;SDS011;63211;48.548;2.704;2024-02-16T11:52:26;1.20;;;0.30;;
74679;SDS011;63211;48.548;2.704;2024-02-16T11:54:53;0.73;;;0.20;;
74679;SDS011;63211;48.548;2.704;2024-02-16T11:57:20;0.20;;;0.10;;
74679;SDS011;63211;48.548;2.704;2024-02-16T11:59:47;0.10;;;0.00;;
74679;SDS011;63211;48.548;2.704;2024-02-16T12:02:17;1.42;;;0.28;;
74679;SDS011;63211;48.548;2.704;2024-02-16T12:04:46;0.40;;;0.10;;
74679;SDS011;63211;48.548;2.704;2024-02-16T12:07:12;0.13;;;0.08;;
74679;SDS011;63211;48.548;2.704;2024-02-16T12:09:39;0.40;;;0.20;;
74679;SDS011;63211;48.548;2.704;2024-02-16T12:12:06;0.93;;;0.17;;
74679;SDS011;63211;48.548;2.704;2024-02-16T12:14:33;0.25;;;0.10;;
74679;SDS011;63211;48.548;2.704;2024-02-16T12:17:03;0.52;;;0.10;;
74679;SDS011;63211;48.548;2.704;2024-02-16T12:19:31;0.30;;;0.10;;
74679;SDS011;63211;48.548;2.704;2024-02-16T12:21:57;0.85;;;0.10;;
74679;SDS011;63211;48.548;2.704;2024-02-16T12:24:24;0.30;;;0.20;;
74679;SDS011;63211;48.548;2.704;2024-02-16T12:26:51;1.60;;;0.13;;
74679;SDS011;63211;48.548;2.704;2024-02-16T12:29:18;1.77;;;0.20;;
74679;SDS011;63211;48.548;2.704;2024-02-16T12:31:45;0.60;;;0.15;;
74679;SDS011;63211;48.548;2.704;2024-02-16T12:34:13;0.25;;;0.13;;
74679;SDS011;63211;48.548;2.704;2024-02-16T12:36:41;5.45;;;0.47;;
74679;SDS011;63211;48.548;2.704;2024-02-16T12:39:08;0.68;;;0.25;;
74679;SDS011;63211;48.548;2.704;2024-02-16T12:41:37;0.68;;;0.28;;
74679;SDS011;63211;48.548;2.704;2024-02-16T12:44:04;0.93;;;0.20;;
74679;SDS011;63211;48.548;2.704;2024-02-16T12:46:31;0.70;;;0.20;;
74679;SDS011;63211;48.548;2.704;2024-02-16T12:48:59;2.90;;;0.43;;
74679;SDS011;63211;48.548;2.704;2024-02-16T12:51:25;2.30;;;1.00;;
74679;SDS011;63211;48.548;2.704;2024-02-16T12:53:53;1.38;;;0.55;;
74679;SDS011;63211;48.548;2.704;2024-02-16T12:56:20;1.98;;;0.22;;
74679;SDS011;63211;48.548;2.704;2024-02-16T12:58:47;1.38;;;0.40;;
74679;SDS011;63211;48.548;2.704;2024-02-16T13:01:14;0.30;;;0.20;;
74679;SDS011;63211;48.548;2.704;2024-02-16T13:03:43;1.67;;;0.77;;
74679;SDS011;63211;48.548;2.704;2024-02-16T13:06:09;1.15;;;0.30;;
74679;SDS011;63211;48.548;2.704;2024-02-16T13:08:36;5.15;;;0.75;;
74679;SDS011;63211;48.548;2.704;2024-02-16T13:11:05;1.13;;;0.45;;
74679;SDS011;63211;48.548;2.704;2024-02-16T13:13:31;1.77;;;0.38;;
74679;SDS011;63211;48.548;2.704;2024-02-16T13:15:58;2.22;;;0.80;;
74679;SDS011;63211;48.548;2.704;2024-02-16T13:18:25;1.17;;;0.70;;
74679;SDS011;63211;48.548;2.704;2024-02-16T13:20:51;3.47;;;0.60;;
74679;SDS011;63211;48.548;2.704;2024-02-16T13:23:18;1.77;;;0.70;;
74679;SDS011;63211;48.548;2.704;2024-02-16T13:25:44;1.23;;;0.50;;
74679;SDS011;63211;48.548;2.704;2024-02-16T13:28:12;3.05;;;0.60;;
74679;SDS011;63211;48.548;2.704;2024-02-16T13:30:41;6.45;;;0.82;;
74679;SDS011;63211;48.548;2.704;2024-02-16T13:33:07;2.72;;;0.93;;
74679;SDS011;63211;48.548;2.704;2024-02-16T13:35:34;2.67;;;1.10;;
74679;SDS011;63211;48.548;2.704;2024-02-16T13:38:02;3.20;;;1.38;;
74679;SDS011;63211;48.548;2.704;2024-02-16T13:40:29;3.05;;;1.35;;
74679;SDS011;63211;48.548;2.704;2024-02-16T13:42:57;3.20;;;1.40;;
74679;SDS011;63211;48.548;2.704;2024-02-16T13:45:28;5.20;;;1.58;;
74679;SDS011;63211;48.548;2.704;2024-02-16T13:47:56;5.05;;;2.00;;
74679;SDS011;63211;48.548;2.704;2024-02-16T13:50:23;4.72;;;2.60;;
74679;SDS011;63211;48.548;2.704;2024-02-16T13:52:50;5.10;;;2.30;;
74679;SDS011;63211;48.548;2.704;2024-02-16T13:55:16;5.18;;;2.72;;
74679;SDS011;63211;48.548;2.704;2024-02-16T13:57:43;5.65;;;2.75;;
74679;SDS011;63211;48.548;2.704;2024-02-16T14:00:10;5.90;;;3.15;;
74679;SDS011;63211;48.548;2.704;2024-02-16T14:02:38;5.50;;;2.60;;
74679;SDS011;63211;48.548;2.704;2024-02-16T14:05:05;6.93;;;3.17;;
74679;SDS011;63211;48.548;2.704;2024-02-16T14:07:32;6.75;;;3.08;;
74679;SDS011;63211;48.548;2.704;2024-02-16T14:09:59;5.47;;;3.17;;
74679;SDS011;63211;48.548;2.704;2024-02-16T14:12:25;5.38;;;3.17;;
74679;SDS011;63211;48.548;2.704;2024-02-16T14:14:52;5.93;;;3.03;;
74679;SDS011;63211;48.548;2.704;2024-02-16T14:17:18;6.45;;;3.13;;
74679;SDS011;63211;48.548;2.704;2024-02-16T14:19:46;7.18;;;3.08;;
74679;SDS011;63211;48.548;2.704;2024-02-16T14:22:13;4.53;;;2.80;;
74679;SDS011;63211;48.548;2.704;2024-02-16T14:24:39;4.72;;;2.67;;
74679;SDS011;63211;48.548;2.704;2024-02-16T14:27:06;4.82;;;2.50;;
74679;SDS011;63211;48.548;2.704;2024-02-16T14:29:33;6.40;;;3.10;;
74679;SDS011;63211;48.548;2.704;2024-02-16T14:31:59;5.32;;;2.80;;
74679;SDS011;63211;48.548;2.704;2024-02-16T14:34:26;6.78;;;2.97;;
74679;SDS011;63211;48.548;2.704;2024-02-16T14:36:54;4.28;;;2.25;;
74679;SDS011;63211;48.548;2.704;2024-02-16T14:39:20;5.05;;;2.60;;
74679;SDS011;63211;48.548;2.704;2024-02-16T14:41:50;4.05;;;2.40;;
74679;SDS011;63211;48.548;2.704;2024-02-16T14:44:17;5.55;;;2.20;;
74679;SDS011;63211;48.548;2.704;2024-02-16T14:46:43;4.38;;;2.80;;
74679;SDS011;63211;48.548;2.704;2024-02-16T14:49:10;5.68;;;2.58;;